createdAt,value
2019-03-08T00:02:09.406Z,100.00
2019-03-08T00:04:37.727Z,100.00
2019-03-08T00:07:06.090Z,100.00
2019-03-08T00:09:34.330Z,100.00
2019-03-08T00:12:02.568Z,100.00
2019-03-08T00:14:31.147Z,100.00
2019-03-08T00:16:59.386Z,100.00
2019-03-08T00:19:27.626Z,100.00
2019-03-08T00:21:56.022Z,100.00
2019-03-08T00:24:24.246Z,100.00
2019-03-08T00:26:52.489Z,100.00
2019-03-08T00:29:20.962Z,100.00
2019-03-08T00:31:49.218Z,100.00
2019-03-08T00:34:17.460Z,100.00
2019-03-08T00:36:45.731Z,100.00
2019-03-08T00:39:14.326Z,100.00
2019-03-08T00:41:42.569Z,100.00
2019-03-08T00:44:10.988Z,100.00
2019-03-08T00:46:39.257Z,100.00
2019-03-08T00:49:08.122Z,100.00
2019-03-08T00:51:36.562Z,100.00
2019-03-08T00:54:04.811Z,100.00
2019-03-08T00:56:33.132Z,100.00
2019-03-08T00:59:01.770Z,100.00
2019-03-08T01:01:30.847Z,100.00
2019-03-08T01:03:59.151Z,100.00
2019-03-08T01:06:27.435Z,100.00
2019-03-08T01:08:57.342Z,100.00
2019-03-08T01:11:25.579Z,100.00
2019-03-08T01:13:54.144Z,100.00
2019-03-08T01:16:22.382Z,100.00
2019-03-08T01:18:50.641Z,100.00
2019-03-08T01:21:18.886Z,100.00
2019-03-08T01:23:47.313Z,100.00
2019-03-08T01:26:15.541Z,100.00
2019-03-08T01:28:44.302Z,100.00
2019-03-08T01:31:12.668Z,100.00
2019-03-08T01:33:40.941Z,100.00
2019-03-08T01:36:09.222Z,100.00
2019-03-08T01:38:37.526Z,100.00
2019-03-08T01:41:05.755Z,100.00
2019-03-08T01:43:34.459Z,100.00
2019-03-08T01:46:02.708Z,100.00
2019-03-08T01:48:30.978Z,100.00
2019-03-08T01:50:59.256Z,100.00
2019-03-08T01:53:27.497Z,100.00
2019-03-08T01:55:55.909Z,100.00
2019-03-08T01:58:24.423Z,100.00
2019-03-08T02:00:52.656Z,100.00
2019-03-08T02:03:20.948Z,100.00
2019-03-08T02:05:49.190Z,100.00
2019-03-08T02:08:17.469Z,100.00
2019-03-08T02:10:45.772Z,100.00
2019-03-08T02:13:14.500Z,100.00
2019-03-08T02:15:43.458Z,100.00
2019-03-08T02:18:11.860Z,100.00
2019-03-08T02:20:40.176Z,100.00
2019-03-08T02:23:08.470Z,100.00
2019-03-08T02:25:36.738Z,100.00
2019-03-08T02:28:05.310Z,100.00
2019-03-08T02:30:33.557Z,100.00
2019-03-08T02:33:01.794Z,100.00
2019-03-08T02:35:30.055Z,100.00
2019-03-08T02:37:58.330Z,100.00
2019-03-08T02:40:34.072Z,100.00
2019-03-08T02:43:04.358Z,100.00
2019-03-08T02:45:32.655Z,100.00
2019-03-08T02:48:00.907Z,100.00
2019-03-08T02:50:29.149Z,100.00
2019-03-08T02:52:57.760Z,100.00
2019-03-08T02:55:26.087Z,100.00
2019-03-08T02:57:54.373Z,100.00
2019-03-08T03:00:23.201Z,100.00
2019-03-08T03:02:51.470Z,100.00
2019-03-08T03:05:19.723Z,100.00
2019-03-08T03:07:48.026Z,100.00
2019-03-08T03:10:16.282Z,100.00
2019-03-08T03:12:44.673Z,100.00
2019-03-08T03:15:14.496Z,100.00
2019-03-08T03:17:42.759Z,100.00
2019-03-08T03:20:12.807Z,100.00
2019-03-08T03:22:41.051Z,100.00
2019-03-08T03:25:11.026Z,100.00
2019-03-08T03:27:39.349Z,100.00
2019-03-08T03:30:18.968Z,100.00
2019-03-08T03:32:47.222Z,100.00
2019-03-08T03:35:15.460Z,100.00
2019-03-08T03:37:43.726Z,100.00
2019-03-08T03:40:17.170Z,100.00
2019-03-08T03:42:45.408Z,100.00
2019-03-08T03:45:15.488Z,100.00
2019-03-08T03:47:43.762Z,100.00
2019-03-08T03:50:12.862Z,100.00
2019-03-08T03:52:41.294Z,100.00
2019-03-08T03:55:17.395Z,100.00
2019-03-08T03:57:45.654Z,100.00
2019-03-08T04:00:19.701Z,100.00
2019-03-08T04:02:48.818Z,100.00
2019-03-08T04:05:17.081Z,100.00
2019-03-08T04:07:45.334Z,100.00
2019-03-08T04:10:15.064Z,100.00
2019-03-08T04:12:43.300Z,100.00
2019-03-08T04:15:14.975Z,100.00
2019-03-08T04:17:43.293Z,100.00
2019-03-08T04:20:15.738Z,100.00
2019-03-08T04:22:44.015Z,100.00
2019-03-08T04:25:13.294Z,100.00
2019-03-08T04:27:41.934Z,100.00
2019-03-08T04:30:20.311Z,100.00
2019-03-08T04:32:48.594Z,100.00
2019-03-08T04:35:18.486Z,100.00
2019-03-08T04:37:46.723Z,100.00
2019-03-08T04:40:15.138Z,100.00
2019-03-08T04:42:43.391Z,100.00
2019-03-08T04:45:13.240Z,100.00
2019-03-08T04:47:41.511Z,100.00
2019-03-08T04:50:13.024Z,100.00
2019-03-08T04:52:41.305Z,100.00
2019-03-08T04:55:16.686Z,100.00
2019-03-08T04:57:44.633Z,100.00
2019-03-08T05:00:17.325Z,100.00
2019-03-08T05:02:45.587Z,100.00
2019-03-08T05:05:13.860Z,100.00
2019-03-08T05:07:42.128Z,100.00
2019-03-08T05:10:15.120Z,100.00
2019-03-08T05:12:43.394Z,100.00
2019-03-08T05:15:11.635Z,100.00
2019-03-08T05:17:39.947Z,100.00
2019-03-08T05:20:09.660Z,100.00
2019-03-08T05:22:37.950Z,100.00
2019-03-08T05:25:11.108Z,100.00
2019-03-08T05:27:39.355Z,100.00
2019-03-08T05:30:10.879Z,100.00
2019-03-08T05:32:39.216Z,100.00
2019-03-08T05:35:10.812Z,100.00
2019-03-08T05:37:39.065Z,100.00
2019-03-08T05:40:09.923Z,100.00
2019-03-08T05:42:38.191Z,100.00
2019-03-08T05:45:08.386Z,100.00
2019-03-08T05:47:36.737Z,100.00
2019-03-08T05:50:07.612Z,100.00
2019-03-08T05:52:35.875Z,100.00
2019-03-08T05:55:05.440Z,100.00
2019-03-08T05:57:33.670Z,100.00
2019-03-08T06:00:01.943Z,100.00
2019-03-08T06:02:30.261Z,100.00
2019-03-08T06:05:01.297Z,100.00
2019-03-08T06:07:29.559Z,100.00
2019-03-08T06:09:58.041Z,100.00
2019-03-08T06:12:26.309Z,100.00
2019-03-08T06:14:54.602Z,100.00
2019-03-08T06:17:22.902Z,100.00
2019-03-08T06:19:51.207Z,100.00
2019-03-08T06:22:19.480Z,100.00
2019-03-08T06:24:47.810Z,100.00
2019-03-08T06:27:16.058Z,100.00
2019-03-08T06:29:44.364Z,100.00
2019-03-08T06:32:12.614Z,100.00
2019-03-08T06:34:40.863Z,100.00
2019-03-08T06:37:09.183Z,100.00
2019-03-08T06:39:37.448Z,100.00
2019-03-08T06:42:05.877Z,100.00
2019-03-08T06:44:34.146Z,100.00
2019-03-08T06:47:02.403Z,100.00
2019-03-08T06:49:30.798Z,100.00
2019-03-08T06:52:00.890Z,100.00
2019-03-08T06:54:29.061Z,100.00
2019-03-08T06:56:59.176Z,100.00
2019-03-08T06:59:35.311Z,100.00
2019-03-08T07:02:03.611Z,100.00
2019-03-08T07:04:31.865Z,100.00
2019-03-08T07:07:00.115Z,100.00
2019-03-08T07:09:28.382Z,100.00
2019-03-08T07:11:58.068Z,100.00
2019-03-08T07:14:26.284Z,100.00
2019-03-08T07:16:54.596Z,100.00
2019-03-08T07:19:22.902Z,100.00
2019-03-08T07:21:52.841Z,100.00
2019-03-08T07:24:22.743Z,100.00
2019-03-08T07:27:08.741Z,100.00
2019-03-08T07:29:44.414Z,100.00
2019-03-08T07:32:17.773Z,100.00
2019-03-08T07:35:04.151Z,100.00
2019-03-08T07:37:40.338Z,100.00
2019-03-08T07:40:13.623Z,100.00
2019-03-08T07:42:59.384Z,100.00
2019-03-08T07:45:29.387Z,100.00
2019-03-08T07:47:59.273Z,100.00
2019-03-08T07:50:38.339Z,100.00
2019-03-08T07:53:25.985Z,100.00
2019-03-08T07:55:55.953Z,100.00
2019-03-08T07:58:32.010Z,100.00
2019-03-08T08:01:04.784Z,100.00
2019-03-08T08:03:49.685Z,100.00
2019-03-08T08:06:19.582Z,100.00
2019-03-08T08:09:04.193Z,100.00
2019-03-08T08:11:36.784Z,100.00
2019-03-08T08:14:09.679Z,100.00
2019-03-08T08:16:58.031Z,100.00
2019-03-08T08:19:27.936Z,100.00
2019-03-08T08:21:57.910Z,100.00
2019-03-08T08:24:30.501Z,100.00
2019-03-08T08:27:12.250Z,100.00
2019-03-08T08:29:59.938Z,100.00
2019-03-08T08:32:29.906Z,100.00
2019-03-08T08:35:02.763Z,100.00
2019-03-08T08:37:35.848Z,100.00
2019-03-08T08:40:14.475Z,100.00
2019-03-08T08:42:53.072Z,100.00
2019-03-08T08:45:34.885Z,100.00
2019-03-08T08:48:10.552Z,100.00
2019-03-08T08:50:52.238Z,100.00
2019-03-08T08:53:40.330Z,100.00
2019-03-08T08:56:10.316Z,100.00
2019-03-08T08:58:42.967Z,100.00
2019-03-08T09:01:24.714Z,100.00
2019-03-08T09:03:54.599Z,100.00
2019-03-08T09:06:40.853Z,100.00
2019-03-08T09:09:19.411Z,100.00
2019-03-08T09:11:55.373Z,100.00
2019-03-08T09:14:31.207Z,100.00
2019-03-08T09:17:01.103Z,100.00
2019-03-08T09:19:46.216Z,100.00
2019-03-08T09:22:21.657Z,100.00
2019-03-08T09:25:07.870Z,100.00
2019-03-08T09:27:40.288Z,100.00
2019-03-08T09:30:22.620Z,100.00
2019-03-08T09:32:59.320Z,100.00
2019-03-08T09:35:32.996Z,100.00
2019-03-08T09:38:12.706Z,100.00
2019-03-08T09:40:57.816Z,100.00
2019-03-08T09:43:27.714Z,100.00
2019-03-08T09:46:09.555Z,100.00
2019-03-08T09:48:51.617Z,100.00
2019-03-08T09:51:37.949Z,100.00
2019-03-08T09:54:20.080Z,100.00
2019-03-08T09:56:49.995Z,100.00
2019-03-08T09:59:37.908Z,99.27
2019-03-08T10:02:08.110Z,91.33
2019-03-08T10:04:43.692Z,92.73
2019-03-08T10:07:25.643Z,93.77
2019-03-08T10:10:01.569Z,95.66
2019-03-08T10:12:47.322Z,94.24
2019-03-08T10:15:32.449Z,91.56
2019-03-08T10:18:20.247Z,88.98
2019-03-08T10:20:55.847Z,89.12
2019-03-08T10:23:37.843Z,90.28
2019-03-08T10:26:22.947Z,87.91
2019-03-08T10:29:01.775Z,86.87
2019-03-08T10:31:31.712Z,85.11
2019-03-08T10:34:04.307Z,84.02
2019-03-08T10:36:49.259Z,86.44
2019-03-08T10:39:19.144Z,84.14
2019-03-08T10:42:01.136Z,83.18
2019-03-08T10:44:33.825Z,84.46
2019-03-08T10:47:22.122Z,79.67
2019-03-08T10:49:55.124Z,80.92
2019-03-08T10:52:32.316Z,81.30
2019-03-08T10:55:06.451Z,80.79
2019-03-08T10:57:42.132Z,80.80
2019-03-08T11:00:28.385Z,82.16
2019-03-08T11:02:58.298Z,81.48
2019-03-08T11:05:39.477Z,79.60
2019-03-08T11:08:29.675Z,79.01
2019-03-08T11:11:06.049Z,78.28
2019-03-08T11:13:43.046Z,76.55
2019-03-08T11:16:24.958Z,78.33
2019-03-08T11:18:54.685Z,77.17
2019-03-08T11:21:33.760Z,78.74
2019-03-08T11:24:20.195Z,80.27
2019-03-08T11:27:06.484Z,81.35
2019-03-08T11:29:36.407Z,80.06
2019-03-08T11:32:22.787Z,83.66
2019-03-08T11:35:03.349Z,79.65
2019-03-08T11:37:42.199Z,80.22
2019-03-08T11:40:14.227Z,82.19
2019-03-08T11:42:46.653Z,82.04
2019-03-08T11:45:16.542Z,80.35
2019-03-08T11:48:01.822Z,82.40
2019-03-08T11:50:41.196Z,78.05
2019-03-08T11:53:11.104Z,75.89
2019-03-08T11:55:46.605Z,79.18
2019-03-08T11:58:16.520Z,78.91
2019-03-08T12:00:53.236Z,77.92
2019-03-08T12:03:23.327Z,80.18
2019-03-08T12:05:53.248Z,77.18
2019-03-08T12:08:38.078Z,78.81
2019-03-08T12:11:26.158Z,82.26
2019-03-08T12:13:58.389Z,82.22
2019-03-08T12:16:34.038Z,84.54
2019-03-08T12:19:03.942Z,85.09
2019-03-08T12:21:33.823Z,83.13
2019-03-08T12:24:09.823Z,84.03
2019-03-08T12:26:42.199Z,79.61
2019-03-08T12:29:12.088Z,79.56
2019-03-08T12:31:42.125Z,82.17
2019-03-08T12:34:12.047Z,81.10
2019-03-08T12:36:41.992Z,82.63
2019-03-08T12:39:11.884Z,84.17
2019-03-08T12:41:44.871Z,85.27
2019-03-08T12:44:29.962Z,84.30
2019-03-08T12:47:17.950Z,84.03
2019-03-08T12:49:47.861Z,82.24
2019-03-08T12:52:17.955Z,83.22
2019-03-08T12:54:47.969Z,83.11
2019-03-08T12:57:32.226Z,84.39
2019-03-08T13:00:14.402Z,88.47
2019-03-08T13:02:47.014Z,87.41
2019-03-08T13:05:32.891Z,84.74
2019-03-08T13:08:02.780Z,82.50
2019-03-08T13:10:31.043Z,86.09
2019-03-08T13:12:59.895Z,84.41
2019-03-08T13:15:28.155Z,84.81
2019-03-08T13:17:56.460Z,82.91
2019-03-08T13:20:24.748Z,85.25
2019-03-08T13:22:52.996Z,85.59
2019-03-08T13:25:22.221Z,83.82
2019-03-08T13:27:50.496Z,82.41
2019-03-08T13:30:23.238Z,81.31
2019-03-08T13:32:51.585Z,80.10
2019-03-08T13:35:20.422Z,78.13
2019-03-08T13:37:48.659Z,79.81
2019-03-08T13:40:17.044Z,78.42
2019-03-08T13:42:45.394Z,80.07
2019-03-08T13:45:19.015Z,78.45
2019-03-08T13:47:47.328Z,79.10
2019-03-08T13:50:15.751Z,78.63
2019-03-08T13:52:44.351Z,80.89
2019-03-08T13:55:14.990Z,80.21
2019-03-08T13:57:43.305Z,80.01
2019-03-08T14:00:19.891Z,76.51
2019-03-08T14:02:48.192Z,77.32
2019-03-08T14:05:16.524Z,78.33
2019-03-08T14:07:44.757Z,77.13
2019-03-08T14:10:17.770Z,78.70
2019-03-08T14:12:46.042Z,76.40
2019-03-08T14:15:17.878Z,77.79
2019-03-08T14:17:46.136Z,80.39
2019-03-08T14:20:25.297Z,79.02
2019-03-08T14:22:53.673Z,81.90
2019-03-08T14:25:21.931Z,82.42
2019-03-08T14:27:50.167Z,85.01
2019-03-08T14:30:32.200Z,86.23
2019-03-08T14:33:01.539Z,83.21
2019-03-08T14:35:30.998Z,84.47
2019-03-08T14:37:59.516Z,83.69
2019-03-08T14:40:47.470Z,83.67
2019-03-08T14:43:20.276Z,84.54
2019-03-08T14:46:06.395Z,87.10
2019-03-08T14:48:34.776Z,86.68
2019-03-08T14:51:03.359Z,92.59
2019-03-08T14:53:32.757Z,91.57
2019-03-08T14:56:01.418Z,92.72
2019-03-08T14:58:32.528Z,93.13
2019-03-08T15:01:02.131Z,92.12
2019-03-08T15:03:29.883Z,90.38
2019-03-08T15:05:59.346Z,88.64
2019-03-08T15:08:27.727Z,86.12
2019-03-08T15:10:56.122Z,88.36
2019-03-08T15:13:25.815Z,86.77
2019-03-08T15:15:57.896Z,85.44
2019-03-08T15:18:25.836Z,85.98
2019-03-08T15:20:54.779Z,84.16
2019-03-08T15:23:24.188Z,83.01
2019-03-08T15:25:52.434Z,85.34
2019-03-08T15:28:20.702Z,83.39
2019-03-08T15:30:51.889Z,84.79
2019-03-08T15:33:22.955Z,84.25
2019-03-08T15:35:51.181Z,85.02
2019-03-08T15:38:19.456Z,84.72
2019-03-08T15:40:48.875Z,86.23
2019-03-08T15:43:17.263Z,88.56
2019-03-08T15:45:46.179Z,87.88
2019-03-08T15:48:15.851Z,88.97
2019-03-08T15:50:46.679Z,89.98
2019-03-08T15:53:15.275Z,90.05
2019-03-08T15:55:52.555Z,91.87
2019-03-08T15:58:13.736Z,92.68
2019-03-08T16:00:42.039Z,93.33
2019-03-08T16:03:10.306Z,93.61
2019-03-08T16:05:38.586Z,94.06
2019-03-08T16:08:06.898Z,94.65
2019-03-08T16:10:35.385Z,94.41
2019-03-08T16:13:03.616Z,93.59
2019-03-08T16:15:31.867Z,94.48
2019-03-08T16:18:00.129Z,93.24
2019-03-08T16:20:28.484Z,94.10
2019-03-08T16:22:56.970Z,94.13
2019-03-08T16:25:26.081Z,94.53
2019-03-08T16:27:54.350Z,95.29
2019-03-08T16:30:33.335Z,95.83
2019-03-08T16:33:12.539Z,96.26
2019-03-08T16:35:59.247Z,97.70
2019-03-08T16:38:32.195Z,97.34
2019-03-08T16:41:08.208Z,97.06
2019-03-08T16:43:38.212Z,98.75
2019-03-08T16:46:25.112Z,99.15
2019-03-08T16:49:14.902Z,98.62
2019-03-08T16:51:55.043Z,98.47
2019-03-08T16:54:30.344Z,100.00
2019-03-08T16:57:00.477Z,99.60
2019-03-08T16:59:36.250Z,100.00
2019-03-08T17:02:12.375Z,100.00
2019-03-08T17:04:42.355Z,100.00
2019-03-08T17:07:15.224Z,100.00
2019-03-08T17:09:45.187Z,100.00
2019-03-08T17:12:27.350Z,100.00
2019-03-08T17:15:13.463Z,100.00
2019-03-08T17:17:43.414Z,100.00
2019-03-08T17:20:32.003Z,100.00
2019-03-08T17:23:01.892Z,100.00
2019-03-08T17:25:37.867Z,100.00
2019-03-08T17:28:16.825Z,100.00
2019-03-08T17:30:46.709Z,100.00
2019-03-08T17:33:16.742Z,100.00
2019-03-08T17:36:02.837Z,100.00
2019-03-08T17:38:32.867Z,100.00
2019-03-08T17:41:04.561Z,100.00
2019-03-08T17:43:43.587Z,100.00
2019-03-08T17:46:29.809Z,100.00
2019-03-08T17:49:05.876Z,100.00
2019-03-08T17:51:38.567Z,100.00
2019-03-08T17:54:11.404Z,100.00
2019-03-08T17:56:57.144Z,100.00
2019-03-08T17:59:27.044Z,100.00
2019-03-08T18:01:56.960Z,100.00
2019-03-08T18:04:32.676Z,100.00
2019-03-08T18:07:02.815Z,100.00
2019-03-08T18:09:35.668Z,100.00
2019-03-08T18:12:11.691Z,100.00
2019-03-08T18:14:41.584Z,100.00
2019-03-08T18:17:14.532Z,100.00
2019-03-08T18:19:44.470Z,100.00
2019-03-08T18:22:32.876Z,100.00
2019-03-08T18:25:08.494Z,100.00
2019-03-08T18:27:38.389Z,100.00
2019-03-08T18:30:28.157Z,100.00
2019-03-08T18:33:09.983Z,100.00
2019-03-08T18:35:55.771Z,100.00
2019-03-08T18:38:31.315Z,100.00
2019-03-08T18:41:04.001Z,100.00
2019-03-08T18:43:36.576Z,100.00
2019-03-08T18:46:18.755Z,100.00
2019-03-08T18:48:55.234Z,100.00
2019-03-08T18:51:40.328Z,100.00
2019-03-08T18:54:10.208Z,100.00
2019-03-08T18:56:43.380Z,100.00
2019-03-08T18:59:16.270Z,100.00
2019-03-08T19:01:54.888Z,100.00
2019-03-08T19:04:30.624Z,100.00
2019-03-08T19:07:00.591Z,100.00
2019-03-08T19:09:36.300Z,100.00
2019-03-08T19:12:07.137Z,100.00
2019-03-08T19:14:49.329Z,100.00
2019-03-08T19:17:34.279Z,100.00
2019-03-08T19:20:20.391Z,100.00
2019-03-08T19:22:59.365Z,100.00
2019-03-08T19:25:32.410Z,100.00
2019-03-08T19:28:20.625Z,100.00
2019-03-08T19:30:59.668Z,100.00
2019-03-08T19:33:46.217Z,100.00
2019-03-08T19:36:34.234Z,100.00
2019-03-08T19:39:04.137Z,100.00
2019-03-08T19:41:36.483Z,100.00
2019-03-08T19:44:06.403Z,100.00
2019-03-08T19:46:51.062Z,100.00
2019-03-08T19:49:29.754Z,100.00
2019-03-08T19:51:59.752Z,100.00
2019-03-08T19:54:29.773Z,100.00
2019-03-08T19:57:05.657Z,100.00
2019-03-08T19:59:35.579Z,100.00
2019-03-08T20:02:14.508Z,100.00
2019-03-08T20:04:56.126Z,100.00
2019-03-08T20:07:41.353Z,100.00
2019-03-08T20:10:28.103Z,100.00
2019-03-08T20:13:00.940Z,100.00
2019-03-08T20:15:30.827Z,100.00
2019-03-08T20:18:03.370Z,100.00
2019-03-08T20:20:35.755Z,100.00
2019-03-08T20:23:17.730Z,100.00
2019-03-08T20:25:53.273Z,100.00
2019-03-08T20:28:23.200Z,100.00
2019-03-08T20:31:09.323Z,100.00
2019-03-08T20:33:39.270Z,100.00
2019-03-08T20:36:27.562Z,100.00
2019-03-08T20:39:15.966Z,100.00
2019-03-08T20:41:45.982Z,100.00
2019-03-08T20:44:15.891Z,100.00
2019-03-08T20:46:45.785Z,100.00
2019-03-08T20:49:14.363Z,100.00
2019-03-08T20:51:42.615Z,100.00
2019-03-08T20:54:11.001Z,100.00
2019-03-08T20:56:39.432Z,100.00
2019-03-08T20:59:08.073Z,100.00
2019-03-08T21:01:36.415Z,100.00
2019-03-08T21:04:04.931Z,100.00
2019-03-08T21:06:33.574Z,100.00
2019-03-08T21:09:01.895Z,100.00
2019-03-08T21:11:30.206Z,100.00
2019-03-08T21:13:58.614Z,100.00
2019-03-08T21:16:26.836Z,100.00
2019-03-08T21:18:55.251Z,100.00
2019-03-08T21:21:23.681Z,100.00
2019-03-08T21:23:51.930Z,100.00
2019-03-08T21:26:20.277Z,100.00
2019-03-08T21:28:48.701Z,100.00
2019-03-08T21:31:17.088Z,100.00
2019-03-08T21:33:45.356Z,100.00
2019-03-08T21:36:13.645Z,100.00
2019-03-08T21:38:41.891Z,100.00
2019-03-08T21:41:10.361Z,100.00
2019-03-08T21:43:38.648Z,100.00
2019-03-08T21:46:07.572Z,100.00
2019-03-08T21:48:36.133Z,100.00
2019-03-08T21:51:04.415Z,100.00
2019-03-08T21:53:32.658Z,100.00
2019-03-08T21:56:02.330Z,100.00
2019-03-08T21:58:30.887Z,100.00
2019-03-08T22:00:59.138Z,100.00
2019-03-08T22:03:27.418Z,100.00
2019-03-08T22:05:55.768Z,100.00
2019-03-08T22:08:24.264Z,100.00
2019-03-08T22:10:54.150Z,100.00
2019-03-08T22:13:22.442Z,100.00
2019-03-08T22:15:50.835Z,100.00
2019-03-08T22:18:19.079Z,100.00
2019-03-08T22:20:47.710Z,100.00
2019-03-08T22:23:16.028Z,100.00
2019-03-08T22:25:44.371Z,100.00
2019-03-08T22:28:12.668Z,100.00
2019-03-08T22:30:41.033Z,100.00
2019-03-08T22:33:09.268Z,100.00
2019-03-08T22:35:37.751Z,100.00
2019-03-08T22:38:06.046Z,100.00
2019-03-08T22:40:34.399Z,100.00
2019-03-08T22:43:02.693Z,100.00
2019-03-08T22:45:30.969Z,100.00
2019-03-08T22:47:59.238Z,100.00
2019-03-08T22:50:27.614Z,100.00
2019-03-08T22:52:55.857Z,100.00
2019-03-08T22:55:24.178Z,100.00
2019-03-08T22:57:52.633Z,100.00
2019-03-08T23:00:54.844Z,100.00
2019-03-08T23:03:24.532Z,100.00
2019-03-08T23:05:52.898Z,100.00
2019-03-08T23:08:21.141Z,100.00
2019-03-08T23:10:49.547Z,100.00
2019-03-08T23:13:17.846Z,100.00
2019-03-08T23:15:46.168Z,100.00
2019-03-08T23:18:15.178Z,100.00
2019-03-08T23:20:43.606Z,100.00
2019-03-08T23:23:12.094Z,100.00
2019-03-08T23:25:43.531Z,100.00
2019-03-08T23:28:25.480Z,100.00
2019-03-08T23:30:55.368Z,100.00
2019-03-08T23:33:23.913Z,100.00
2019-03-08T23:35:52.349Z,100.00
2019-03-08T23:38:20.664Z,100.00
2019-03-08T23:40:48.901Z,100.00
2019-03-08T23:43:17.187Z,100.00
2019-03-08T23:45:45.592Z,100.00
2019-03-08T23:48:13.840Z,100.00
2019-03-08T23:50:42.117Z,100.00
2019-03-08T23:53:10.421Z,100.00
2019-03-08T23:55:38.655Z,100.00
2019-03-08T23:58:06.994Z,100.00
